sensor_id;sensor_type;location;lat;lon;timestamp;temperature;humidity
7844;DHT22;3967;48.702;9.326;2022-09-28T00:00:05;10.70;99.90
7844;DHT22;3967;48.702;9.326;2022-09-28T00:02:32;10.80;99.90
7844;DHT22;3967;48.702;9.326;2022-09-28T00:05:01;10.70;99.90
7844;DHT22;3967;48.702;9.326;2022-09-28T00:07:28;10.60;99.90
7844;DHT22;3967;48.702;9.326;2022-09-28T00:09:54;10.70;99.90
7844;DHT22;3967;48.702;9.326;2022-09-28T00:12:21;10.60;99.90
7844;DHT22;3967;48.702;9.326;2022-09-28T00:14:49;10.40;99.90
7844;DHT22;3967;48.702;9.326;2022-09-28T00:17:16;10.40;99.90
7844;DHT22;3967;48.702;9.326;2022-09-28T00:19:47;10.50;99.90
7844;DHT22;3967;48.702;9.326;2022-09-28T00:22:14;10.50;99.90
7844;DHT22;3967;48.702;9.326;2022-09-28T00:24:40;10.40;99.90
7844;DHT22;3967;48.702;9.326;2022-09-28T00:27:07;10.40;99.90
7844;DHT22;3967;48.702;9.326;2022-09-28T00:29:36;10.40;99.90
7844;DHT22;3967;48.702;9.326;2022-09-28T00:32:09;10.50;99.90
7844;DHT22;3967;48.702;9.326;2022-09-28T00:34:38;10.50;99.90
7844;DHT22;3967;48.702;9.326;2022-09-28T00:37:08;10.60;99.90
7844;DHT22;3967;48.702;9.326;2022-09-28T00:39:35;10.60;99.90
7844;DHT22;3967;48.702;9.326;2022-09-28T00:50:29;10.60;99.90
7844;DHT22;3967;48.702;9.326;2022-09-28T00:55:45;10.50;99.90
7844;DHT22;3967;48.702;9.326;2022-09-28T00:58:16;10.50;99.90
7844;DHT22;3967;48.702;9.326;2022-09-28T01:00:44;10.50;99.90
7844;DHT22;3967;48.702;9.326;2022-09-28T01:03:11;10.60;99.90
7844;DHT22;3967;48.702;9.326;2022-09-28T01:05:39;10.60;99.90
7844;DHT22;3967;48.702;9.326;2022-09-28T01:08:07;10.50;99.90
7844;DHT22;3967;48.702;9.326;2022-09-28T01:10:34;10.50;99.90
7844;DHT22;3967;48.702;9.326;2022-09-28T01:13:00;10.60;99.90
7844;DHT22;3967;48.702;9.326;2022-09-28T01:15:28;10.70;99.90
7844;DHT22;3967;48.702;9.326;2022-09-28T01:29:05;10.60;99.90
7844;DHT22;3967;48.702;9.326;2022-09-28T01:31:35;10.60;99.90
7844;DHT22;3967;48.702;9.326;2022-09-28T01:34:15;10.60;99.90
7844;DHT22;3967;48.702;9.326;2022-09-28T01:36:48;10.60;99.90
7844;DHT22;3967;48.702;9.326;2022-09-28T01:39:27;10.60;99.90
7844;DHT22;3967;48.702;9.326;2022-09-28T01:41:56;10.60;99.90
7844;DHT22;3967;48.702;9.326;2022-09-28T01:44:27;10.40;99.90
7844;DHT22;3967;48.702;9.326;2022-09-28T01:46:56;10.40;99.90
7844;DHT22;3967;48.702;9.326;2022-09-28T01:49:36;10.40;99.90
7844;DHT22;3967;48.702;9.326;2022-09-28T01:57:58;10.70;99.90
7844;DHT22;3967;48.702;9.326;2022-09-28T02:00:27;10.60;99.90
7844;DHT22;3967;48.702;9.326;2022-09-28T02:02:58;10.60;99.90
7844;DHT22;3967;48.702;9.326;2022-09-28T02:05:31;10.60;99.90
7844;DHT22;3967;48.702;9.326;2022-09-28T02:10:51;10.70;99.90
7844;DHT22;3967;48.702;9.326;2022-09-28T02:13:27;10.60;99.90
7844;DHT22;3967;48.702;9.326;2022-09-28T02:18:29;10.50;99.90
7844;DHT22;3967;48.702;9.326;2022-09-28T02:21:10;10.50;99.90
7844;DHT22;3967;48.702;9.326;2022-09-28T02:23:42;10.60;99.90
7844;DHT22;3967;48.702;9.326;2022-09-28T02:26:13;10.60;99.90
7844;DHT22;3967;48.702;9.326;2022-09-28T02:28:42;10.50;99.90
7844;DHT22;3967;48.702;9.326;2022-09-28T02:31:08;10.50;99.90
7844;DHT22;3967;48.702;9.326;2022-09-28T02:33:37;10.40;99.90
7844;DHT22;3967;48.702;9.326;2022-09-28T02:36:05;10.40;99.90
7844;DHT22;3967;48.702;9.326;2022-09-28T02:38:32;10.40;99.90
7844;DHT22;3967;48.702;9.326;2022-09-28T02:52:14;10.50;99.90
7844;DHT22;3967;48.702;9.326;2022-09-28T03:00:20;10.60;99.90
7844;DHT22;3967;48.702;9.326;2022-09-28T03:02:58;10.60;99.90
7844;DHT22;3967;48.702;9.326;2022-09-28T03:05:44;10.60;99.90
7844;DHT22;3967;48.702;9.326;2022-09-28T03:11:01;10.60;99.90
7844;DHT22;3967;48.702;9.326;2022-09-28T03:13:30;10.70;99.90
7844;DHT22;3967;48.702;9.326;2022-09-28T03:16:11;10.60;99.90
7844;DHT22;3967;48.702;9.326;2022-09-28T03:18:38;10.60;99.90
7844;DHT22;3967;48.702;9.326;2022-09-28T03:21:06;10.70;99.90
7844;DHT22;3967;48.702;9.326;2022-09-28T03:23:33;10.70;99.90
7844;DHT22;3967;48.702;9.326;2022-09-28T03:25:59;10.80;99.90
7844;DHT22;3967;48.702;9.326;2022-09-28T03:28:26;10.70;99.90
7844;DHT22;3967;48.702;9.326;2022-09-28T03:30:53;10.70;99.90
7844;DHT22;3967;48.702;9.326;2022-09-28T03:33:21;10.80;99.90
7844;DHT22;3967;48.702;9.326;2022-09-28T03:35:49;10.80;99.90
7844;DHT22;3967;48.702;9.326;2022-09-28T03:38:17;10.80;99.90
7844;DHT22;3967;48.702;9.326;2022-09-28T03:40:54;10.80;99.90
7844;DHT22;3967;48.702;9.326;2022-09-28T03:43:22;10.80;99.90
7844;DHT22;3967;48.702;9.326;2022-09-28T03:46:00;10.90;99.90
7844;DHT22;3967;48.702;9.326;2022-09-28T03:48:32;10.80;99.90
7844;DHT22;3967;48.702;9.326;2022-09-28T03:51:02;10.80;99.90
7844;DHT22;3967;48.702;9.326;2022-09-28T03:53:29;10.90;99.90
7844;DHT22;3967;48.702;9.326;2022-09-28T03:56:00;10.90;99.90
7844;DHT22;3967;48.702;9.326;2022-09-28T03:58:27;10.90;99.90
7844;DHT22;3967;48.702;9.326;2022-09-28T04:01:00;10.80;99.90
7844;DHT22;3967;48.702;9.326;2022-09-28T04:03:27;10.90;99.90
7844;DHT22;3967;48.702;9.326;2022-09-28T04:05:53;10.90;99.90
7844;DHT22;3967;48.702;9.326;2022-09-28T04:08:20;10.90;99.90
7844;DHT22;3967;48.702;9.326;2022-09-28T04:10:47;10.90;99.90
7844;DHT22;3967;48.702;9.326;2022-09-28T04:13:13;10.80;99.90
7844;DHT22;3967;48.702;9.326;2022-09-28T04:15:40;10.70;99.90
7844;DHT22;3967;48.702;9.326;2022-09-28T04:18:11;10.60;99.90
7844;DHT22;3967;48.702;9.326;2022-09-28T04:20:38;10.60;99.90
7844;DHT22;3967;48.702;9.326;2022-09-28T04:23:06;10.50;99.90
7844;DHT22;3967;48.702;9.326;2022-09-28T04:25:33;10.70;99.90
7844;DHT22;3967;48.702;9.326;2022-09-28T04:28:00;10.70;99.90
7844;DHT22;3967;48.702;9.326;2022-09-28T04:30:46;10.70;99.90
7844;DHT22;3967;48.702;9.326;2022-09-28T04:33:13;10.80;99.90
7844;DHT22;3967;48.702;9.326;2022-09-28T04:35:39;10.80;99.90
7844;DHT22;3967;48.702;9.326;2022-09-28T04:38:06;10.70;99.90
7844;DHT22;3967;48.702;9.326;2022-09-28T04:40:33;10.80;99.90
7844;DHT22;3967;48.702;9.326;2022-09-28T04:42:59;10.70;99.90
7844;DHT22;3967;48.702;9.326;2022-09-28T04:45:26;10.60;99.90
7844;DHT22;3967;48.702;9.326;2022-09-28T04:47:53;10.70;99.90
7844;DHT22;3967;48.702;9.326;2022-09-28T04:50:20;10.70;99.90
7844;DHT22;3967;48.702;9.326;2022-09-28T04:52:46;10.60;99.90
7844;DHT22;3967;48.702;9.326;2022-09-28T04:55:13;10.60;99.90
7844;DHT22;3967;48.702;9.326;2022-09-28T04:57:40;10.70;99.90
7844;DHT22;3967;48.702;9.326;2022-09-28T05:00:07;10.60;99.90
7844;DHT22;3967;48.702;9.326;2022-09-28T05:02:35;10.70;99.90
7844;DHT22;3967;48.702;9.326;2022-09-28T05:05:02;10.70;99.90
7844;DHT22;3967;48.702;9.326;2022-09-28T05:07:28;10.80;99.90
7844;DHT22;3967;48.702;9.326;2022-09-28T05:09:56;10.90;99.90
7844;DHT22;3967;48.702;9.326;2022-09-28T05:12:23;10.90;99.90
7844;DHT22;3967;48.702;9.326;2022-09-28T05:14:49;10.70;99.90
7844;DHT22;3967;48.702;9.326;2022-09-28T05:17:16;10.90;99.90
7844;DHT22;3967;48.702;9.326;2022-09-28T05:19:43;11.00;99.90
7844;DHT22;3967;48.702;9.326;2022-09-28T05:22:09;11.00;99.90
7844;DHT22;3967;48.702;9.326;2022-09-28T05:24:40;11.00;99.90
7844;DHT22;3967;48.702;9.326;2022-09-28T05:27:07;11.00;99.90
7844;DHT22;3967;48.702;9.326;2022-09-28T05:29:34;10.90;99.90
7844;DHT22;3967;48.702;9.326;2022-09-28T05:32:00;10.70;99.90
7844;DHT22;3967;48.702;9.326;2022-09-28T05:34:28;10.70;99.90
7844;DHT22;3967;48.702;9.326;2022-09-28T05:36:54;10.80;99.90
7844;DHT22;3967;48.702;9.326;2022-09-28T05:39:21;10.80;99.90
7844;DHT22;3967;48.702;9.326;2022-09-28T05:41:47;10.90;99.90
7844;DHT22;3967;48.702;9.326;2022-09-28T05:44:14;10.80;99.90
7844;DHT22;3967;48.702;9.326;2022-09-28T05:46:41;10.80;99.90
7844;DHT22;3967;48.702;9.326;2022-09-28T05:49:08;10.90;99.90
7844;DHT22;3967;48.702;9.326;2022-09-28T05:51:34;10.90;99.90
7844;DHT22;3967;48.702;9.326;2022-09-28T05:54:01;10.90;99.90
7844;DHT22;3967;48.702;9.326;2022-09-28T05:56:31;11.00;99.90
7844;DHT22;3967;48.702;9.326;2022-09-28T05:58:58;11.00;99.90
7844;DHT22;3967;48.702;9.326;2022-09-28T06:01:25;11.00;99.90
7844;DHT22;3967;48.702;9.326;2022-09-28T06:03:52;10.90;99.90
7844;DHT22;3967;48.702;9.326;2022-09-28T06:06:18;10.90;99.90
7844;DHT22;3967;48.702;9.326;2022-09-28T06:08:45;11.00;99.90
7844;DHT22;3967;48.702;9.326;2022-09-28T06:11:13;10.90;99.90
7844;DHT22;3967;48.702;9.326;2022-09-28T06:13:40;10.90;99.90
7844;DHT22;3967;48.702;9.326;2022-09-28T06:16:07;10.90;99.90
7844;DHT22;3967;48.702;9.326;2022-09-28T06:18:39;11.00;99.90
7844;DHT22;3967;48.702;9.326;2022-09-28T06:21:06;11.10;99.90
7844;DHT22;3967;48.702;9.326;2022-09-28T06:23:36;11.00;99.90
7844;DHT22;3967;48.702;9.326;2022-09-28T06:26:06;11.10;99.90
7844;DHT22;3967;48.702;9.326;2022-09-28T06:28:33;10.90;99.90
7844;DHT22;3967;48.702;9.326;2022-09-28T06:31:00;10.90;99.90
7844;DHT22;3967;48.702;9.326;2022-09-28T06:33:26;11.00;99.90
7844;DHT22;3967;48.702;9.326;2022-09-28T06:35:53;11.00;99.90
7844;DHT22;3967;48.702;9.326;2022-09-28T06:38:20;11.00;99.90
7844;DHT22;3967;48.702;9.326;2022-09-28T06:40:46;11.10;99.90
7844;DHT22;3967;48.702;9.326;2022-09-28T06:43:14;11.10;99.90
7844;DHT22;3967;48.702;9.326;2022-09-28T06:45:42;11.10;99.90
7844;DHT22;3967;48.702;9.326;2022-09-28T06:48:10;11.10;99.90
7844;DHT22;3967;48.702;9.326;2022-09-28T06:50:39;11.10;99.90
7844;DHT22;3967;48.702;9.326;2022-09-28T06:53:07;11.10;99.90
7844;DHT22;3967;48.702;9.326;2022-09-28T06:55:38;11.10;99.90
7844;DHT22;3967;48.702;9.326;2022-09-28T06:58:11;11.20;99.90
7844;DHT22;3967;48.702;9.326;2022-09-28T07:00:39;11.10;99.90
7844;DHT22;3967;48.702;9.326;2022-09-28T07:03:10;10.90;99.90
7844;DHT22;3967;48.702;9.326;2022-09-28T07:05:43;11.00;99.90
7844;DHT22;3967;48.702;9.326;2022-09-28T07:08:11;10.90;99.90
7844;DHT22;3967;48.702;9.326;2022-09-28T07:10:43;10.90;99.90
7844;DHT22;3967;48.702;9.326;2022-09-28T07:13:10;11.00;99.90
7844;DHT22;3967;48.702;9.326;2022-09-28T07:15:59;11.00;99.90
7844;DHT22;3967;48.702;9.326;2022-09-28T07:18:26;11.10;99.90
7844;DHT22;3967;48.702;9.326;2022-09-28T07:20:55;11.10;99.90
7844;DHT22;3967;48.702;9.326;2022-09-28T07:23:25;11.10;99.90
7844;DHT22;3967;48.702;9.326;2022-09-28T07:25:55;11.20;99.90
7844;DHT22;3967;48.702;9.326;2022-09-28T07:28:23;11.20;99.90
7844;DHT22;3967;48.702;9.326;2022-09-28T07:30:50;11.30;99.90
7844;DHT22;3967;48.702;9.326;2022-09-28T07:33:17;11.30;99.90
7844;DHT22;3967;48.702;9.326;2022-09-28T07:35:54;11.20;99.90
7844;DHT22;3967;48.702;9.326;2022-09-28T07:38:21;11.20;99.90
7844;DHT22;3967;48.702;9.326;2022-09-28T07:40:48;11.10;99.90
7844;DHT22;3967;48.702;9.326;2022-09-28T07:43:33;11.20;99.90
7844;DHT22;3967;48.702;9.326;2022-09-28T07:46:00;11.10;99.90
7844;DHT22;3967;48.702;9.326;2022-09-28T07:48:27;11.20;99.90
7844;DHT22;3967;48.702;9.326;2022-09-28T07:50:55;11.30;99.90
7844;DHT22;3967;48.702;9.326;2022-09-28T07:53:23;11.30;99.90
7844;DHT22;3967;48.702;9.326;2022-09-28T07:55:55;11.30;99.90
7844;DHT22;3967;48.702;9.326;2022-09-28T07:58:22;11.40;99.90
7844;DHT22;3967;48.702;9.326;2022-09-28T08:00:49;11.40;99.90
7844;DHT22;3967;48.702;9.326;2022-09-28T08:03:17;11.40;99.90
7844;DHT22;3967;48.702;9.326;2022-09-28T08:05:44;11.40;99.90
7844;DHT22;3967;48.702;9.326;2022-09-28T08:08:13;11.50;99.90
7844;DHT22;3967;48.702;9.326;2022-09-28T08:10:42;11.60;99.90
7844;DHT22;3967;48.702;9.326;2022-09-28T08:13:13;11.60;99.90
7844;DHT22;3967;48.702;9.326;2022-09-28T08:15:41;11.60;99.90
7844;DHT22;3967;48.702;9.326;2022-09-28T08:18:08;11.60;99.90
7844;DHT22;3967;48.702;9.326;2022-09-28T08:20:34;11.50;99.90
7844;DHT22;3967;48.702;9.326;2022-09-28T08:23:20;11.60;99.90
7844;DHT22;3967;48.702;9.326;2022-09-28T08:25:48;11.60;99.90
7844;DHT22;3967;48.702;9.326;2022-09-28T08:28:16;11.70;99.90
7844;DHT22;3967;48.702;9.326;2022-09-28T08:30:44;11.70;99.90
7844;DHT22;3967;48.702;9.326;2022-09-28T08:33:16;11.70;99.90
7844;DHT22;3967;48.702;9.326;2022-09-28T08:35:43;11.80;99.90
7844;DHT22;3967;48.702;9.326;2022-09-28T08:38:12;11.90;99.90
7844;DHT22;3967;48.702;9.326;2022-09-28T08:46:09;11.90;99.90
7844;DHT22;3967;48.702;9.326;2022-09-28T08:48:48;11.90;99.90
7844;DHT22;3967;48.702;9.326;2022-09-28T08:51:54;11.90;99.90
7844;DHT22;3967;48.702;9.326;2022-09-28T08:54:43;12.00;99.90
7844;DHT22;3967;48.702;9.326;2022-09-28T08:57:15;12.10;99.90
7844;DHT22;3967;48.702;9.326;2022-09-28T08:59:56;12.10;99.90
7844;DHT22;3967;48.702;9.326;2022-09-28T09:02:35;12.30;99.90
7844;DHT22;3967;48.702;9.326;2022-09-28T09:05:06;12.30;99.90
7844;DHT22;3967;48.702;9.326;2022-09-28T09:18:41;12.40;99.90
7844;DHT22;3967;48.702;9.326;2022-09-28T09:21:20;12.40;99.90
7844;DHT22;3967;48.702;9.326;2022-09-28T09:23:58;12.30;99.90
7844;DHT22;3967;48.702;9.326;2022-09-28T09:26:40;12.30;99.90
7844;DHT22;3967;48.702;9.326;2022-09-28T09:29:19;12.50;99.90
7844;DHT22;3967;48.702;9.326;2022-09-28T09:32:26;12.60;99.90
7844;DHT22;3967;48.702;9.326;2022-09-28T09:35:43;12.70;99.90
7844;DHT22;3967;48.702;9.326;2022-09-28T09:38:20;12.80;99.90
7844;DHT22;3967;48.702;9.326;2022-09-28T09:49:25;12.60;99.90
7844;DHT22;3967;48.702;9.326;2022-09-28T09:52:02;12.50;99.60
7844;DHT22;3967;48.702;9.326;2022-09-28T09:54:38;12.50;99.90
7844;DHT22;3967;48.702;9.326;2022-09-28T09:57:37;12.60;99.90
7844;DHT22;3967;48.702;9.326;2022-09-28T10:00:02;12.80;99.90
7844;DHT22;3967;48.702;9.326;2022-09-28T10:02:32;12.90;99.90
7844;DHT22;3967;48.702;9.326;2022-09-28T10:05:18;12.90;99.90
7844;DHT22;3967;48.702;9.326;2022-09-28T10:07:51;12.90;99.90
7844;DHT22;3967;48.702;9.326;2022-09-28T10:10:24;12.80;99.20
7844;DHT22;3967;48.702;9.326;2022-09-28T10:12:52;12.70;98.00
7844;DHT22;3967;48.702;9.326;2022-09-28T10:15:23;12.80;99.00
7844;DHT22;3967;48.702;9.326;2022-09-28T10:17:51;13.00;98.40
7844;DHT22;3967;48.702;9.326;2022-09-28T10:20:18;13.00;99.20
7844;DHT22;3967;48.702;9.326;2022-09-28T10:22:45;13.00;98.20
7844;DHT22;3967;48.702;9.326;2022-09-28T10:25:12;13.10;98.60
7844;DHT22;3967;48.702;9.326;2022-09-28T10:27:44;13.10;97.80
7844;DHT22;3967;48.702;9.326;2022-09-28T10:30:16;13.00;96.60
7844;DHT22;3967;48.702;9.326;2022-09-28T10:32:46;13.00;95.90
7844;DHT22;3967;48.702;9.326;2022-09-28T10:40:48;13.20;94.50
7844;DHT22;3967;48.702;9.326;2022-09-28T10:46:19;13.10;94.30
7844;DHT22;3967;48.702;9.326;2022-09-28T10:51:13;13.40;94.40
7844;DHT22;3967;48.702;9.326;2022-09-28T10:53:41;13.30;93.90
7844;DHT22;3967;48.702;9.326;2022-09-28T10:56:27;13.40;94.30
7844;DHT22;3967;48.702;9.326;2022-09-28T10:58:54;13.50;94.60
7844;DHT22;3967;48.702;9.326;2022-09-28T11:01:29;13.50;94.20
7844;DHT22;3967;48.702;9.326;2022-09-28T11:03:59;13.60;94.60
7844;DHT22;3967;48.702;9.326;2022-09-28T11:08:55;13.80;93.30
7844;DHT22;3967;48.702;9.326;2022-09-28T11:11:23;13.60;93.00
7844;DHT22;3967;48.702;9.326;2022-09-28T11:13:52;13.70;92.20
7844;DHT22;3967;48.702;9.326;2022-09-28T11:16:28;13.90;92.00
7844;DHT22;3967;48.702;9.326;2022-09-28T11:19:02;14.00;91.50
7844;DHT22;3967;48.702;9.326;2022-09-28T11:21:39;13.90;92.30
7844;DHT22;3967;48.702;9.326;2022-09-28T11:24:20;14.10;91.70
7844;DHT22;3967;48.702;9.326;2022-09-28T11:26:51;14.20;91.20
7844;DHT22;3967;48.702;9.326;2022-09-28T11:29:42;14.20;90.30
7844;DHT22;3967;48.702;9.326;2022-09-28T11:32:09;14.10;90.00
7844;DHT22;3967;48.702;9.326;2022-09-28T11:34:45;14.10;90.00
7844;DHT22;3967;48.702;9.326;2022-09-28T11:40:33;14.20;90.50
7844;DHT22;3967;48.702;9.326;2022-09-28T11:43:10;14.30;90.40
7844;DHT22;3967;48.702;9.326;2022-09-28T11:46:12;14.20;90.20
7844;DHT22;3967;48.702;9.326;2022-09-28T11:48:51;14.30;90.10
7844;DHT22;3967;48.702;9.326;2022-09-28T11:51:25;14.40;89.10
7844;DHT22;3967;48.702;9.326;2022-09-28T11:54:03;14.40;86.60
7844;DHT22;3967;48.702;9.326;2022-09-28T11:56:40;14.40;87.70
7844;DHT22;3967;48.702;9.326;2022-09-28T12:01:54;14.20;85.70
7844;DHT22;3967;48.702;9.326;2022-09-28T12:04:45;14.30;86.10
7844;DHT22;3967;48.702;9.326;2022-09-28T12:07:32;14.40;87.30
7844;DHT22;3967;48.702;9.326;2022-09-28T12:13:31;14.60;87.90
7844;DHT22;3967;48.702;9.326;2022-09-28T12:15:54;14.70;87.10
7844;DHT22;3967;48.702;9.326;2022-09-28T12:19:05;14.70;86.50
7844;DHT22;3967;48.702;9.326;2022-09-28T12:24:14;14.60;85.30
7844;DHT22;3967;48.702;9.326;2022-09-28T12:27:03;14.70;85.60
7844;DHT22;3967;48.702;9.326;2022-09-28T12:30:03;14.80;84.90
7844;DHT22;3967;48.702;9.326;2022-09-28T12:41:23;14.80;82.50
7844;DHT22;3967;48.702;9.326;2022-09-28T12:50:04;14.90;80.40
7844;DHT22;3967;48.702;9.326;2022-09-28T13:23:03;14.90;80.00
7844;DHT22;3967;48.702;9.326;2022-09-28T13:25:33;15.10;80.10
7844;DHT22;3967;48.702;9.326;2022-09-28T13:28:04;15.10;79.50
7844;DHT22;3967;48.702;9.326;2022-09-28T13:30:33;15.00;79.00
7844;DHT22;3967;48.702;9.326;2022-09-28T13:33:03;15.10;79.70
7844;DHT22;3967;48.702;9.326;2022-09-28T13:35:31;15.00;79.50
7844;DHT22;3967;48.702;9.326;2022-09-28T13:49:17;15.30;79.10
7844;DHT22;3967;48.702;9.326;2022-09-28T13:59:59;15.10;76.40
7844;DHT22;3967;48.702;9.326;2022-09-28T14:02:43;15.20;76.80
7844;DHT22;3967;48.702;9.326;2022-09-28T14:19:03;15.00;76.00
7844;DHT22;3967;48.702;9.326;2022-09-28T14:22:00;15.00;75.60
7844;DHT22;3967;48.702;9.326;2022-09-28T14:27:26;15.00;74.90
7844;DHT22;3967;48.702;9.326;2022-09-28T14:30:16;15.00;75.90
7844;DHT22;3967;48.702;9.326;2022-09-28T14:35:39;14.90;76.90
7844;DHT22;3967;48.702;9.326;2022-09-28T14:38:22;14.90;77.30
7844;DHT22;3967;48.702;9.326;2022-09-28T14:43:58;15.00;76.10
7844;DHT22;3967;48.702;9.326;2022-09-28T14:46:26;14.90;77.10
7844;DHT22;3967;48.702;9.326;2022-09-28T14:54:22;15.00;77.00
7844;DHT22;3967;48.702;9.326;2022-09-28T15:01:58;15.20;76.70
7844;DHT22;3967;48.702;9.326;2022-09-28T15:04:29;15.10;76.80
7844;DHT22;3967;48.702;9.326;2022-09-28T15:06:57;15.10;77.10
7844;DHT22;3967;48.702;9.326;2022-09-28T15:09:30;15.10;77.30
7844;DHT22;3967;48.702;9.326;2022-09-28T15:12:25;15.30;77.00
7844;DHT22;3967;48.702;9.326;2022-09-28T15:15:04;15.10;76.00
7844;DHT22;3967;48.702;9.326;2022-09-28T15:17:36;14.90;75.90
7844;DHT22;3967;48.702;9.326;2022-09-28T15:22:49;14.90;75.70
7844;DHT22;3967;48.702;9.326;2022-09-28T15:25:20;14.80;75.20
7844;DHT22;3967;48.702;9.326;2022-09-28T15:27:53;14.70;74.70
7844;DHT22;3967;48.702;9.326;2022-09-28T15:30:27;14.80;76.00
7844;DHT22;3967;48.702;9.326;2022-09-28T15:32:56;14.90;77.00
7844;DHT22;3967;48.702;9.326;2022-09-28T15:35:54;15.00;77.20
7844;DHT22;3967;48.702;9.326;2022-09-28T15:38:23;14.80;77.50
7844;DHT22;3967;48.702;9.326;2022-09-28T15:40:50;14.70;77.40
7844;DHT22;3967;48.702;9.326;2022-09-28T15:43:25;14.70;77.60
7844;DHT22;3967;48.702;9.326;2022-09-28T15:46:17;14.70;77.40
7844;DHT22;3967;48.702;9.326;2022-09-28T15:48:50;14.80;76.80
7844;DHT22;3967;48.702;9.326;2022-09-28T15:51:19;14.70;76.50
7844;DHT22;3967;48.702;9.326;2022-09-28T15:53:56;14.60;76.60
7844;DHT22;3967;48.702;9.326;2022-09-28T15:56:25;14.80;76.80
7844;DHT22;3967;48.702;9.326;2022-09-28T15:59:18;14.70;76.30
7844;DHT22;3967;48.702;9.326;2022-09-28T16:01:47;14.80;76.20
7844;DHT22;3967;48.702;9.326;2022-09-28T16:04:53;14.80;77.30
7844;DHT22;3967;48.702;9.326;2022-09-28T16:07:37;14.80;77.20
7844;DHT22;3967;48.702;9.326;2022-09-28T16:15:12;14.70;76.70
7844;DHT22;3967;48.702;9.326;2022-09-28T16:17:41;14.50;76.10
7844;DHT22;3967;48.702;9.326;2022-09-28T16:22:44;14.60;77.70
7844;DHT22;3967;48.702;9.326;2022-09-28T16:25:21;14.60;78.40
7844;DHT22;3967;48.702;9.326;2022-09-28T16:27:51;14.60;78.70
7844;DHT22;3967;48.702;9.326;2022-09-28T16:30:24;14.50;78.80
7844;DHT22;3967;48.702;9.326;2022-09-28T16:33:37;14.50;79.30
7844;DHT22;3967;48.702;9.326;2022-09-28T16:35:53;14.50;80.00
7844;DHT22;3967;48.702;9.326;2022-09-28T16:38:20;14.60;80.80
7844;DHT22;3967;48.702;9.326;2022-09-28T16:40:48;14.40;80.30
7844;DHT22;3967;48.702;9.326;2022-09-28T16:43:28;14.30;81.40
7844;DHT22;3967;48.702;9.326;2022-09-28T16:46:03;14.40;81.70
7844;DHT22;3967;48.702;9.326;2022-09-28T16:48:32;14.40;83.00
7844;DHT22;3967;48.702;9.326;2022-09-28T16:51:00;14.60;84.60
7844;DHT22;3967;48.702;9.326;2022-09-28T16:53:27;14.60;85.60
7844;DHT22;3967;48.702;9.326;2022-09-28T16:56:12;14.70;86.30
7844;DHT22;3967;48.702;9.326;2022-09-28T16:58:39;14.70;86.20
7844;DHT22;3967;48.702;9.326;2022-09-28T17:01:06;14.80;85.20
7844;DHT22;3967;48.702;9.326;2022-09-28T17:03:34;14.70;85.50
7844;DHT22;3967;48.702;9.326;2022-09-28T17:06:02;14.80;85.70
7844;DHT22;3967;48.702;9.326;2022-09-28T17:08:29;14.80;85.50
7844;DHT22;3967;48.702;9.326;2022-09-28T17:11:00;14.80;85.60
7844;DHT22;3967;48.702;9.326;2022-09-28T17:13:50;14.80;85.10
7844;DHT22;3967;48.702;9.326;2022-09-28T17:16:22;14.70;85.10
7844;DHT22;3967;48.702;9.326;2022-09-28T17:19:20;14.70;84.70
7844;DHT22;3967;48.702;9.326;2022-09-28T17:21:47;14.60;84.30
7844;DHT22;3967;48.702;9.326;2022-09-28T17:24:14;14.50;84.90
7844;DHT22;3967;48.702;9.326;2022-09-28T17:26:41;14.60;85.50
7844;DHT22;3967;48.702;9.326;2022-09-28T17:29:13;14.50;86.70
7844;DHT22;3967;48.702;9.326;2022-09-28T17:31:44;14.50;86.90
7844;DHT22;3967;48.702;9.326;2022-09-28T17:34:12;14.40;86.70
7844;DHT22;3967;48.702;9.326;2022-09-28T17:36:42;14.30;87.10
7844;DHT22;3967;48.702;9.326;2022-09-28T17:39:14;14.30;87.70
7844;DHT22;3967;48.702;9.326;2022-09-28T17:41:42;14.30;88.30
7844;DHT22;3967;48.702;9.326;2022-09-28T17:44:09;14.20;88.70
7844;DHT22;3967;48.702;9.326;2022-09-28T17:46:37;14.20;89.30
7844;DHT22;3967;48.702;9.326;2022-09-28T17:49:08;14.20;89.70
7844;DHT22;3967;48.702;9.326;2022-09-28T17:51:36;14.10;90.10
7844;DHT22;3967;48.702;9.326;2022-09-28T17:54:04;14.10;90.20
7844;DHT22;3967;48.702;9.326;2022-09-28T17:56:32;14.10;90.10
7844;DHT22;3967;48.702;9.326;2022-09-28T17:59:01;14.10;90.30
7844;DHT22;3967;48.702;9.326;2022-09-28T18:01:28;14.10;90.30
7844;DHT22;3967;48.702;9.326;2022-09-28T18:04:03;14.00;90.30
7844;DHT22;3967;48.702;9.326;2022-09-28T18:06:30;14.00;90.40
7844;DHT22;3967;48.702;9.326;2022-09-28T18:08:59;13.90;90.60
7844;DHT22;3967;48.702;9.326;2022-09-28T18:11:28;14.00;90.70
7844;DHT22;3967;48.702;9.326;2022-09-28T18:13:55;13.90;91.00
7844;DHT22;3967;48.702;9.326;2022-09-28T18:16:22;13.90;90.80
7844;DHT22;3967;48.702;9.326;2022-09-28T18:18:49;13.90;91.00
7844;DHT22;3967;48.702;9.326;2022-09-28T18:21:16;13.90;91.10
7844;DHT22;3967;48.702;9.326;2022-09-28T18:23:42;13.80;91.20
7844;DHT22;3967;48.702;9.326;2022-09-28T18:26:13;13.70;91.60
7844;DHT22;3967;48.702;9.326;2022-09-28T18:28:41;13.70;91.20
7844;DHT22;3967;48.702;9.326;2022-09-28T18:31:12;13.70;91.40
7844;DHT22;3967;48.702;9.326;2022-09-28T18:33:39;13.70;91.50
7844;DHT22;3967;48.702;9.326;2022-09-28T18:36:06;13.60;91.50
7844;DHT22;3967;48.702;9.326;2022-09-28T18:38:36;13.60;91.50
7844;DHT22;3967;48.702;9.326;2022-09-28T18:41:12;13.60;91.50
7844;DHT22;3967;48.702;9.326;2022-09-28T18:43:47;13.60;91.60
7844;DHT22;3967;48.702;9.326;2022-09-28T18:46:17;13.50;91.60
7844;DHT22;3967;48.702;9.326;2022-09-28T18:48:44;13.50;91.60
7844;DHT22;3967;48.702;9.326;2022-09-28T18:51:12;13.50;91.50
7844;DHT22;3967;48.702;9.326;2022-09-28T18:53:39;13.40;91.80
7844;DHT22;3967;48.702;9.326;2022-09-28T18:56:08;13.30;91.90
7844;DHT22;3967;48.702;9.326;2022-09-28T18:58:36;13.30;92.00
7844;DHT22;3967;48.702;9.326;2022-09-28T19:01:08;13.20;92.20
7844;DHT22;3967;48.702;9.326;2022-09-28T19:03:56;13.20;92.30
7844;DHT22;3967;48.702;9.326;2022-09-28T19:06:23;13.10;92.10
7844;DHT22;3967;48.702;9.326;2022-09-28T19:08:52;13.10;92.20
7844;DHT22;3967;48.702;9.326;2022-09-28T19:11:19;13.00;92.30
7844;DHT22;3967;48.702;9.326;2022-09-28T19:13:46;12.90;92.50
7844;DHT22;3967;48.702;9.326;2022-09-28T19:16:19;13.00;92.70
7844;DHT22;3967;48.702;9.326;2022-09-28T19:18:47;12.90;92.70
7844;DHT22;3967;48.702;9.326;2022-09-28T19:21:14;12.90;92.90
7844;DHT22;3967;48.702;9.326;2022-09-28T19:23:42;12.90;92.90
7844;DHT22;3967;48.702;9.326;2022-09-28T19:26:18;12.90;92.80
7844;DHT22;3967;48.702;9.326;2022-09-28T19:28:46;12.90;92.80
7844;DHT22;3967;48.702;9.326;2022-09-28T19:31:13;12.80;92.90
7844;DHT22;3967;48.702;9.326;2022-09-28T19:33:40;12.80;93.00
7844;DHT22;3967;48.702;9.326;2022-09-28T19:36:09;12.80;92.90
7844;DHT22;3967;48.702;9.326;2022-09-28T19:38:38;12.70;93.00
7844;DHT22;3967;48.702;9.326;2022-09-28T19:41:18;12.70;93.20
7844;DHT22;3967;48.702;9.326;2022-09-28T19:44:19;12.70;93.10
7844;DHT22;3967;48.702;9.326;2022-09-28T19:49:26;12.70;93.10
7844;DHT22;3967;48.702;9.326;2022-09-28T19:51:55;12.60;93.20
7844;DHT22;3967;48.702;9.326;2022-09-28T19:54:50;12.50;93.20
7844;DHT22;3967;48.702;9.326;2022-09-28T19:57:25;12.60;93.20
7844;DHT22;3967;48.702;9.326;2022-09-28T19:59:53;12.40;93.20
7844;DHT22;3967;48.702;9.326;2022-09-28T20:02:27;12.50;93.10
7844;DHT22;3967;48.702;9.326;2022-09-28T20:04:54;12.50;93.10